sensor_id;sensor_type;location;lat;lon;timestamp;pressure;altitude;pressure_sealevel;temperature;humidity
59487;BME280;45298;54.918;73.504;2023-05-19T00:00:09;101682.00;;;7.31;48.06
59487;BME280;45298;54.918;73.504;2023-05-19T00:02:42;101681.06;;;6.92;47.98
59487;BME280;45298;54.918;73.504;2023-05-19T00:05:12;101656.31;;;6.54;48.37
59487;BME280;45298;54.918;73.504;2023-05-19T00:07:43;101673.16;;;6.47;48.67
59487;BME280;45298;54.918;73.504;2023-05-19T00:10:14;101686.47;;;6.39;49.06
59487;BME280;45298;54.918;73.504;2023-05-19T00:12:43;101661.38;;;6.16;48.94
59487;BME280;45298;54.918;73.504;2023-05-19T00:15:13;101682.50;;;6.15;49.32
59487;BME280;45298;54.918;73.504;2023-05-19T00:17:42;101693.03;;;6.15;49.63
59487;BME280;45298;54.918;73.504;2023-05-19T00:20:11;101693.94;;;6.12;49.67
59487;BME280;45298;54.918;73.504;2023-05-19T00:22:40;101667.78;;;5.98;49.55
59487;BME280;45298;54.918;73.504;2023-05-19T00:25:11;101688.81;;;6.04;49.76
59487;BME280;45298;54.918;73.504;2023-05-19T00:27:40;101668.91;;;5.86;50.08
59487;BME280;45298;54.918;73.504;2023-05-19T00:30:09;101671.50;;;5.88;50.12
59487;BME280;45298;54.918;73.504;2023-05-19T00:32:38;101660.28;;;5.77;49.95
59487;BME280;45298;54.918;73.504;2023-05-19T00:35:07;101680.41;;;5.79;50.11
59487;BME280;45298;54.918;73.504;2023-05-19T00:37:37;101599.47;;;5.37;50.00
59487;BME280;45298;54.918;73.504;2023-05-19T00:40:06;101657.75;;;5.69;49.78
59487;BME280;45298;54.918;73.504;2023-05-19T00:42:35;101688.22;;;5.84;49.83
59487;BME280;45298;54.918;73.504;2023-05-19T00:45:05;101666.44;;;5.74;50.04
59487;BME280;45298;54.918;73.504;2023-05-19T00:47:34;101675.09;;;5.82;49.84
59487;BME280;45298;54.918;73.504;2023-05-19T00:50:03;101614.97;;;5.56;50.02
59487;BME280;45298;54.918;73.504;2023-05-19T00:52:33;101663.50;;;6.91;48.59
59487;BME280;45298;54.918;73.504;2023-05-19T00:55:02;101665.88;;;8.17;45.63
59487;BME280;45298;54.918;73.504;2023-05-19T00:57:31;101666.47;;;9.23;44.23
59487;BME280;45298;54.918;73.504;2023-05-19T01:00:02;101604.59;;;9.81;41.90
59487;BME280;45298;54.918;73.504;2023-05-19T01:02:33;101664.06;;;10.77;40.61
59487;BME280;45298;54.918;73.504;2023-05-19T01:05:03;101665.25;;;11.15;39.35
59487;BME280;45298;54.918;73.504;2023-05-19T01:07:32;101653.75;;;11.61;39.28
59487;BME280;45298;54.918;73.504;2023-05-19T01:10:02;101597.69;;;11.45;37.77
59487;BME280;45298;54.918;73.504;2023-05-19T01:12:31;101604.91;;;12.06;37.16
59487;BME280;45298;54.918;73.504;2023-05-19T01:15:04;101671.91;;;12.96;36.34
59487;BME280;45298;54.918;73.504;2023-05-19T01:20:50;;;;13.45;
59487;BME280;45298;54.918;73.504;2023-05-19T01:31:58;101658.50;;;14.27;34.02
59487;BME280;45298;54.918;73.504;2023-05-19T01:34:29;101671.06;;;13.89;34.42
59487;BME280;45298;54.918;73.504;2023-05-19T01:37:00;101647.00;;;13.54;34.21
59487;BME280;45298;54.918;73.504;2023-05-19T01:39:31;101648.38;;;13.81;34.57
59487;BME280;45298;54.918;73.504;2023-05-19T01:42:01;101673.59;;;14.10;34.08
59487;BME280;45298;54.918;73.504;2023-05-19T01:44:32;101664.72;;;13.92;33.59
59487;BME280;45298;54.918;73.504;2023-05-19T01:47:01;101644.97;;;13.42;34.38
59487;BME280;45298;54.918;73.504;2023-05-19T01:49:31;101608.03;;;13.33;34.51
59487;BME280;45298;54.918;73.504;2023-05-19T01:52:00;101648.47;;;13.23;35.61
59487;BME280;45298;54.918;73.504;2023-05-19T01:54:29;101639.53;;;13.05;34.87
59487;BME280;45298;54.918;73.504;2023-05-19T02:05:49;101646.06;;;13.55;35.52
59487;BME280;45298;54.918;73.504;2023-05-19T02:08:31;101666.16;;;13.63;34.54
59487;BME280;45298;54.918;73.504;2023-05-19T02:13:55;101637.94;;;13.76;35.01
59487;BME280;45298;54.918;73.504;2023-05-19T02:16:27;101641.75;;;13.53;34.25
59487;BME280;45298;54.918;73.504;2023-05-19T02:18:56;101648.16;;;13.29;35.63
59487;BME280;45298;54.918;73.504;2023-05-19T02:21:26;101595.56;;;12.96;34.38
59487;BME280;45298;54.918;73.504;2023-05-19T02:23:55;101644.56;;;13.30;35.50
59487;BME280;45298;54.918;73.504;2023-05-19T02:26:24;101659.47;;;13.54;34.58
59487;BME280;45298;54.918;73.504;2023-05-19T02:28:53;101637.44;;;13.50;34.59
59487;BME280;45298;54.918;73.504;2023-05-19T02:31:23;101621.28;;;13.53;34.91
59487;BME280;45298;54.918;73.504;2023-05-19T02:33:52;101649.28;;;13.99;33.86
59487;BME280;45298;54.918;73.504;2023-05-19T02:36:21;101593.44;;;13.41;34.41
59487;BME280;45298;54.918;73.504;2023-05-19T02:38:50;101653.59;;;13.65;34.35
59487;BME280;45298;54.918;73.504;2023-05-19T02:41:20;101648.31;;;13.45;34.60
59487;BME280;45298;54.918;73.504;2023-05-19T02:43:49;101655.44;;;13.26;35.10
59487;BME280;45298;54.918;73.504;2023-05-19T02:46:19;101634.50;;;13.18;35.16
59487;BME280;45298;54.918;73.504;2023-05-19T02:48:48;101637.34;;;13.33;34.62
59487;BME280;45298;54.918;73.504;2023-05-19T02:51:17;101647.78;;;13.37;34.71
59487;BME280;45298;54.918;73.504;2023-05-19T02:53:46;101645.22;;;13.36;34.25
59487;BME280;45298;54.918;73.504;2023-05-19T02:56:14;101632.38;;;13.81;33.92
59487;BME280;45298;54.918;73.504;2023-05-19T02:58:44;101642.50;;;14.27;33.31
59487;BME280;45298;54.918;73.504;2023-05-19T03:01:13;101633.94;;;14.38;32.12
59487;BME280;45298;54.918;73.504;2023-05-19T03:03:42;101654.66;;;14.32;32.22
59487;BME280;45298;54.918;73.504;2023-05-19T03:06:12;101649.34;;;14.66;32.05
59487;BME280;45298;54.918;73.504;2023-05-19T03:08:41;101588.91;;;14.31;32.18
59487;BME280;45298;54.918;73.504;2023-05-19T03:11:11;101632.78;;;14.59;31.79
59487;BME280;45298;54.918;73.504;2023-05-19T03:13:40;101643.06;;;14.67;31.38
59487;BME280;45298;54.918;73.504;2023-05-19T03:16:09;101627.41;;;14.77;31.13
59487;BME280;45298;54.918;73.504;2023-05-19T03:18:40;101589.75;;;14.65;31.42
59487;BME280;45298;54.918;73.504;2023-05-19T03:21:09;101629.94;;;14.80;31.33
59487;BME280;45298;54.918;73.504;2023-05-19T03:23:38;101627.59;;;14.56;31.46
59487;BME280;45298;54.918;73.504;2023-05-19T03:26:08;101647.72;;;14.97;30.94
59487;BME280;45298;54.918;73.504;2023-05-19T03:28:38;101643.06;;;15.01;30.46
59487;BME280;45298;54.918;73.504;2023-05-19T03:31:06;101634.44;;;15.11;30.52
59487;BME280;45298;54.918;73.504;2023-05-19T03:33:38;101620.22;;;14.95;30.80
59487;BME280;45298;54.918;73.504;2023-05-19T03:36:07;101639.47;;;15.18;30.69
59487;BME280;45298;54.918;73.504;2023-05-19T03:38:40;101636.75;;;14.86;30.30
59487;BME280;45298;54.918;73.504;2023-05-19T03:41:09;101630.09;;;14.77;30.77
59487;BME280;45298;54.918;73.504;2023-05-19T03:43:38;101624.03;;;15.07;30.37
59487;BME280;45298;54.918;73.504;2023-05-19T03:46:08;101616.00;;;14.91;30.43
59487;BME280;45298;54.918;73.504;2023-05-19T03:48:55;101649.25;;;15.01;30.37
59487;BME280;45298;54.918;73.504;2023-05-19T03:51:37;101580.94;;;14.63;30.42
59487;BME280;45298;54.918;73.504;2023-05-19T03:54:20;101633.06;;;14.88;29.69
59487;BME280;45298;54.918;73.504;2023-05-19T03:56:50;101632.28;;;14.86;30.17
59487;BME280;45298;54.918;73.504;2023-05-19T03:59:19;101616.84;;;14.91;30.01
59487;BME280;45298;54.918;73.504;2023-05-19T04:01:48;101646.34;;;15.06;29.73
59487;BME280;45298;54.918;73.504;2023-05-19T04:04:18;101613.31;;;15.23;29.77
59487;BME280;45298;54.918;73.504;2023-05-19T04:06:47;101576.75;;;15.39;29.85
59487;BME280;45298;54.918;73.504;2023-05-19T04:09:16;101620.00;;;15.62;28.97
59487;BME280;45298;54.918;73.504;2023-05-19T04:11:46;101621.19;;;15.73;29.14
59487;BME280;45298;54.918;73.504;2023-05-19T04:14:15;101611.84;;;15.80;29.15
59487;BME280;45298;54.918;73.504;2023-05-19T04:16:44;101635.41;;;15.73;29.06
59487;BME280;45298;54.918;73.504;2023-05-19T04:19:13;101616.31;;;15.49;28.89
59487;BME280;45298;54.918;73.504;2023-05-19T04:21:42;101613.88;;;15.60;28.73
59487;BME280;45298;54.918;73.504;2023-05-19T04:24:11;101620.53;;;15.99;29.67
59487;BME280;45298;54.918;73.504;2023-05-19T04:26:41;101618.09;;;16.25;29.15
59487;BME280;45298;54.918;73.504;2023-05-19T04:29:14;101616.19;;;16.27;28.64
59487;BME280;45298;54.918;73.504;2023-05-19T04:31:45;101624.75;;;16.18;27.90
59487;BME280;45298;54.918;73.504;2023-05-19T04:34:14;101615.91;;;15.87;27.98
59487;BME280;45298;54.918;73.504;2023-05-19T04:36:47;101617.47;;;16.06;28.16
59487;BME280;45298;54.918;73.504;2023-05-19T04:39:23;101629.31;;;16.01;28.10
59487;BME280;45298;54.918;73.504;2023-05-19T04:41:52;101599.06;;;16.15;27.98
59487;BME280;45298;54.918;73.504;2023-05-19T04:44:22;101601.06;;;16.26;28.31
59487;BME280;45298;54.918;73.504;2023-05-19T04:46:52;101645.44;;;16.30;27.84
59487;BME280;45298;54.918;73.504;2023-05-19T04:49:22;101616.00;;;16.45;28.15
59487;BME280;45298;54.918;73.504;2023-05-19T04:51:52;101605.94;;;16.77;27.44
59487;BME280;45298;54.918;73.504;2023-05-19T04:54:26;101609.69;;;16.60;27.63
59487;BME280;45298;54.918;73.504;2023-05-19T04:56:56;101618.50;;;16.62;28.19
59487;BME280;45298;54.918;73.504;2023-05-19T04:59:27;101590.72;;;16.78;27.98
59487;BME280;45298;54.918;73.504;2023-05-19T05:01:57;101598.38;;;16.84;27.20
59487;BME280;45298;54.918;73.504;2023-05-19T05:04:28;101609.78;;;16.73;27.51
59487;BME280;45298;54.918;73.504;2023-05-19T05:06:58;101619.56;;;16.60;27.74
59487;BME280;45298;54.918;73.504;2023-05-19T05:09:28;101576.78;;;16.58;27.13
59487;BME280;45298;54.918;73.504;2023-05-19T05:12:00;101589.31;;;16.72;27.61
59487;BME280;45298;54.918;73.504;2023-05-19T05:14:30;101612.53;;;17.01;27.05
59487;BME280;45298;54.918;73.504;2023-05-19T05:16:59;101601.13;;;17.12;26.85
59487;BME280;45298;54.918;73.504;2023-05-19T05:19:29;101593.97;;;17.12;26.68
59487;BME280;45298;54.918;73.504;2023-05-19T05:21:59;101607.44;;;17.11;26.35
59487;BME280;45298;54.918;73.504;2023-05-19T05:24:29;101598.00;;;17.05;26.42
59487;BME280;45298;54.918;73.504;2023-05-19T05:27:01;101590.56;;;16.96;26.05
59487;BME280;45298;54.918;73.504;2023-05-19T05:29:32;101606.16;;;17.03;26.65
59487;BME280;45298;54.918;73.504;2023-05-19T05:32:03;101610.44;;;16.77;26.72
59487;BME280;45298;54.918;73.504;2023-05-19T05:34:32;101579.38;;;16.45;26.55
59487;BME280;45298;54.918;73.504;2023-05-19T05:37:04;101595.72;;;16.70;26.66
59487;BME280;45298;54.918;73.504;2023-05-19T05:39:34;101600.09;;;17.00;26.81
59487;BME280;45298;54.918;73.504;2023-05-19T05:42:04;101599.53;;;17.36;25.89
59487;BME280;45298;54.918;73.504;2023-05-19T05:44:33;101601.06;;;17.13;26.11
59487;BME280;45298;54.918;73.504;2023-05-19T05:47:04;101576.69;;;17.16;25.81
59487;BME280;45298;54.918;73.504;2023-05-19T05:49:34;101596.19;;;17.33;26.41
59487;BME280;45298;54.918;73.504;2023-05-19T05:52:07;101592.44;;;17.35;25.81
59487;BME280;45298;54.918;73.504;2023-05-19T05:54:42;101525.63;;;16.90;25.34
59487;BME280;45298;54.918;73.504;2023-05-19T05:57:13;101530.53;;;16.84;25.57
59487;BME280;45298;54.918;73.504;2023-05-19T05:59:43;101581.06;;;17.32;25.81
59487;BME280;45298;54.918;73.504;2023-05-19T06:02:16;101577.56;;;17.44;26.72
59487;BME280;45298;54.918;73.504;2023-05-19T06:04:45;101571.34;;;17.57;25.87
59487;BME280;45298;54.918;73.504;2023-05-19T06:07:14;101576.91;;;17.81;25.85
59487;BME280;45298;54.918;73.504;2023-05-19T06:09:44;101572.09;;;17.46;25.04
59487;BME280;45298;54.918;73.504;2023-05-19T06:12:14;101539.31;;;17.28;26.09
59487;BME280;45298;54.918;73.504;2023-05-19T06:14:47;101533.16;;;17.53;25.75
59487;BME280;45298;54.918;73.504;2023-05-19T06:17:51;101540.13;;;17.56;25.82
59487;BME280;45298;54.918;73.504;2023-05-19T06:20:21;101553.03;;;17.76;25.19
59487;BME280;45298;54.918;73.504;2023-05-19T06:22:50;101541.59;;;17.74;25.82
59487;BME280;45298;54.918;73.504;2023-05-19T06:25:21;101543.81;;;17.80;25.20
59487;BME280;45298;54.918;73.504;2023-05-19T06:27:52;101529.78;;;17.90;25.05
59487;BME280;45298;54.918;73.504;2023-05-19T06:30:24;101532.19;;;18.20;24.53
59487;BME280;45298;54.918;73.504;2023-05-19T06:33:17;101520.13;;;18.00;25.22
59487;BME280;45298;54.918;73.504;2023-05-19T06:35:46;101533.66;;;18.24;25.32
59487;BME280;45298;54.918;73.504;2023-05-19T06:38:15;101534.94;;;18.45;25.02
59487;BME280;45298;54.918;73.504;2023-05-19T06:40:44;101502.94;;;18.16;24.62
59487;BME280;45298;54.918;73.504;2023-05-19T06:43:13;101455.25;;;17.93;24.24
59487;BME280;45298;54.918;73.504;2023-05-19T06:45:55;101522.81;;;18.26;24.88
59487;BME280;45298;54.918;73.504;2023-05-19T06:48:25;101527.84;;;18.43;24.86
59487;BME280;45298;54.918;73.504;2023-05-19T06:50:54;101536.53;;;18.47;24.84
59487;BME280;45298;54.918;73.504;2023-05-19T06:53:24;101511.69;;;18.56;23.72
59487;BME280;45298;54.918;73.504;2023-05-19T06:55:53;101493.66;;;18.46;23.01
59487;BME280;45298;54.918;73.504;2023-05-19T06:58:31;101499.19;;;18.68;23.98
59487;BME280;45298;54.918;73.504;2023-05-19T07:01:03;101494.19;;;18.88;23.03
59487;BME280;45298;54.918;73.504;2023-05-19T07:03:38;101503.13;;;19.48;23.18
59487;BME280;45298;54.918;73.504;2023-05-19T07:06:08;101507.31;;;19.64;22.79
59487;BME280;45298;54.918;73.504;2023-05-19T07:08:37;101512.09;;;19.60;22.36
59487;BME280;45298;54.918;73.504;2023-05-19T07:11:07;101502.19;;;19.25;22.72
59487;BME280;45298;54.918;73.504;2023-05-19T07:13:36;101500.03;;;19.06;22.83
59487;BME280;45298;54.918;73.504;2023-05-19T07:16:05;101504.09;;;19.12;22.95
59487;BME280;45298;54.918;73.504;2023-05-19T07:18:34;101477.88;;;19.27;23.69
59487;BME280;45298;54.918;73.504;2023-05-19T07:21:03;101475.31;;;19.37;23.78
59487;BME280;45298;54.918;73.504;2023-05-19T07:23:33;101491.34;;;19.85;22.63
59487;BME280;45298;54.918;73.504;2023-05-19T07:26:01;101475.97;;;20.10;21.81
59487;BME280;45298;54.918;73.504;2023-05-19T07:28:30;101479.56;;;19.63;22.24
59487;BME280;45298;54.918;73.504;2023-05-19T07:31:01;101430.59;;;19.47;22.47
59487;BME280;45298;54.918;73.504;2023-05-19T07:33:30;101476.19;;;20.18;22.61
59487;BME280;45298;54.918;73.504;2023-05-19T07:35:59;101474.19;;;20.54;21.94
59487;BME280;45298;54.918;73.504;2023-05-19T07:38:29;101467.19;;;20.75;21.91
59487;BME280;45298;54.918;73.504;2023-05-19T07:41:01;101462.72;;;20.41;21.51
59487;BME280;45298;54.918;73.504;2023-05-19T07:43:30;101449.88;;;20.22;21.97
59487;BME280;45298;54.918;73.504;2023-05-19T07:45:59;101462.59;;;20.31;21.45
59487;BME280;45298;54.918;73.504;2023-05-19T07:48:31;101449.25;;;20.41;21.92
59487;BME280;45298;54.918;73.504;2023-05-19T07:51:01;101441.94;;;20.64;21.87
59487;BME280;45298;54.918;73.504;2023-05-19T07:53:30;101438.00;;;20.13;21.43
59487;BME280;45298;54.918;73.504;2023-05-19T07:55:59;101454.91;;;20.27;22.06
59487;BME280;45298;54.918;73.504;2023-05-19T07:58:28;101427.44;;;20.33;21.65
59487;BME280;45298;54.918;73.504;2023-05-19T08:00:57;101441.84;;;20.66;21.18
59487;BME280;45298;54.918;73.504;2023-05-19T08:03:27;101439.00;;;20.79;20.89
59487;BME280;45298;54.918;73.504;2023-05-19T08:05:57;101430.63;;;20.38;21.22
59487;BME280;45298;54.918;73.504;2023-05-19T08:08:26;101420.97;;;20.24;21.63
59487;BME280;45298;54.918;73.504;2023-05-19T08:10:55;101436.00;;;20.38;21.94
59487;BME280;45298;54.918;73.504;2023-05-19T08:13:24;101418.38;;;20.45;21.74
59487;BME280;45298;54.918;73.504;2023-05-19T08:15:53;101423.16;;;20.86;21.11
59487;BME280;45298;54.918;73.504;2023-05-19T08:18:27;101419.41;;;20.77;20.83
59487;BME280;45298;54.918;73.504;2023-05-19T08:20:55;101411.03;;;20.36;21.53
59487;BME280;45298;54.918;73.504;2023-05-19T08:23:24;101398.38;;;20.48;20.92
59487;BME280;45298;54.918;73.504;2023-05-19T08:25:53;101414.94;;;20.32;20.83
59487;BME280;45298;54.918;73.504;2023-05-19T08:28:23;101392.72;;;20.07;20.69
59487;BME280;45298;54.918;73.504;2023-05-19T08:30:52;101396.84;;;20.11;20.87
59487;BME280;45298;54.918;73.504;2023-05-19T08:33:20;101414.69;;;20.35;20.19
59487;BME280;45298;54.918;73.504;2023-05-19T08:35:52;101389.03;;;20.19;20.30
59487;BME280;45298;54.918;73.504;2023-05-19T08:38:24;101407.59;;;20.34;20.11
59487;BME280;45298;54.918;73.504;2023-05-19T08:40:53;101355.22;;;20.15;20.20
59487;BME280;45298;54.918;73.504;2023-05-19T08:43:22;101344.59;;;20.14;20.75
59487;BME280;45298;54.918;73.504;2023-05-19T08:45:52;101405.06;;;20.65;20.57
59487;BME280;45298;54.918;73.504;2023-05-19T08:48:21;101377.97;;;20.78;20.51
59487;BME280;45298;54.918;73.504;2023-05-19T08:53:58;101383.31;;;20.89;21.16
59487;BME280;45298;54.918;73.504;2023-05-19T08:56:32;101317.78;;;20.45;20.08
59487;BME280;45298;54.918;73.504;2023-05-19T08:59:02;101385.97;;;20.57;20.57
59487;BME280;45298;54.918;73.504;2023-05-19T09:01:31;101368.81;;;20.69;20.32
59487;BME280;45298;54.918;73.504;2023-05-19T09:04:01;101363.84;;;20.86;20.63
59487;BME280;45298;54.918;73.504;2023-05-19T09:06:34;101371.59;;;21.00;20.72
59487;BME280;45298;54.918;73.504;2023-05-19T09:09:06;101355.69;;;20.97;20.64
59487;BME280;45298;54.918;73.504;2023-05-19T09:11:35;101364.63;;;20.76;20.38
59487;BME280;45298;54.918;73.504;2023-05-19T09:14:05;101375.97;;;20.80;20.61
59487;BME280;45298;54.918;73.504;2023-05-19T09:16:34;101375.53;;;20.63;21.03
59487;BME280;45298;54.918;73.504;2023-05-19T09:19:02;101365.72;;;20.74;21.04
59487;BME280;45298;54.918;73.504;2023-05-19T09:21:32;101363.84;;;21.07;20.63
59487;BME280;45298;54.918;73.504;2023-05-19T09:24:04;101360.25;;;20.96;20.62
59487;BME280;45298;54.918;73.504;2023-05-19T09:26:41;101359.50;;;20.94;21.14
59487;BME280;45298;54.918;73.504;2023-05-19T09:29:15;101364.97;;;21.04;20.93
59487;BME280;45298;54.918;73.504;2023-05-19T09:32:02;101338.78;;;21.16;20.63
59487;BME280;45298;54.918;73.504;2023-05-19T09:34:40;101348.75;;;21.25;20.20
59487;BME280;45298;54.918;73.504;2023-05-19T09:37:11;101349.53;;;21.37;20.32
59487;BME280;45298;54.918;73.504;2023-05-19T09:39:40;101345.91;;;21.48;20.08
59487;BME280;45298;54.918;73.504;2023-05-19T09:42:15;101345.06;;;21.26;20.48
59487;BME280;45298;54.918;73.504;2023-05-19T09:44:46;101337.91;;;21.16;20.71
59487;BME280;45298;54.918;73.504;2023-05-19T09:47:15;101315.56;;;21.04;20.93
59487;BME280;45298;54.918;73.504;2023-05-19T09:49:50;101325.56;;;21.13;20.68
59487;BME280;45298;54.918;73.504;2023-05-19T09:52:19;101311.13;;;21.03;21.11
59487;BME280;45298;54.918;73.504;2023-05-19T09:54:49;101314.38;;;20.96;21.15
59487;BME280;45298;54.918;73.504;2023-05-19T09:57:25;101308.38;;;20.93;21.17
59487;BME280;45298;54.918;73.504;2023-05-19T09:59:57;101317.47;;;20.92;20.76
59487;BME280;45298;54.918;73.504;2023-05-19T10:02:31;101323.78;;;20.81;20.43
59487;BME280;45298;54.918;73.504;2023-05-19T10:05:01;101306.22;;;20.87;20.40
59487;BME280;45298;54.918;73.504;2023-05-19T10:07:32;101309.44;;;21.02;20.99
59487;BME280;45298;54.918;73.504;2023-05-19T10:10:02;101252.41;;;20.64;20.92
59487;BME280;45298;54.918;73.504;2023-05-19T10:12:31;101298.16;;;20.75;20.61
59487;BME280;45298;54.918;73.504;2023-05-19T10:15:01;101299.66;;;20.79;20.86
59487;BME280;45298;54.918;73.504;2023-05-19T10:17:31;101296.69;;;20.82;21.36
59487;BME280;45298;54.918;73.504;2023-05-19T10:20:02;101294.97;;;20.81;20.92
59487;BME280;45298;54.918;73.504;2023-05-19T10:22:32;101292.38;;;20.59;21.39
59487;BME280;45298;54.918;73.504;2023-05-19T10:25:02;101290.91;;;20.54;21.21
59487;BME280;45298;54.918;73.504;2023-05-19T10:27:36;101295.00;;;20.70;21.19
59487;BME280;45298;54.918;73.504;2023-05-19T10:30:48;101296.28;;;20.66;21.58
59487;BME280;45298;54.918;73.504;2023-05-19T10:33:19;101280.59;;;20.60;21.17
59487;BME280;45298;54.918;73.504;2023-05-19T10:42:28;101287.31;;;20.77;21.32
59487;BME280;45298;54.918;73.504;2023-05-19T10:45:17;101274.75;;;20.54;21.03
59487;BME280;45298;54.918;73.504;2023-05-19T10:47:49;101262.88;;;20.57;21.22
59487;BME280;45298;54.918;73.504;2023-05-19T10:50:19;101291.91;;;20.53;21.54
59487;BME280;45298;54.918;73.504;2023-05-19T10:52:55;101270.41;;;20.42;21.79
59487;BME280;45298;54.918;73.504;2023-05-19T11:01:15;101283.31;;;20.60;21.75
59487;BME280;45298;54.918;73.504;2023-05-19T11:06:27;101263.44;;;20.61;21.88
59487;BME280;45298;54.918;73.504;2023-05-19T11:09:01;101240.69;;;20.53;21.76
59487;BME280;45298;54.918;73.504;2023-05-19T11:11:53;101267.28;;;20.58;22.22
59487;BME280;45298;54.918;73.504;2023-05-19T11:14:25;101263.13;;;20.54;21.73
59487;BME280;45298;54.918;73.504;2023-05-19T11:16:58;101244.22;;;20.33;22.42
59487;BME280;45298;54.918;73.504;2023-05-19T11:19:29;101255.94;;;20.43;21.94
59487;BME280;45298;54.918;73.504;2023-05-19T11:22:09;101249.81;;;20.20;21.99
59487;BME280;45298;54.918;73.504;2023-05-19T11:24:45;101239.38;;;20.27;22.10
59487;BME280;45298;54.918;73.504;2023-05-19T11:29:55;101239.81;;;20.32;21.89
59487;BME280;45298;54.918;73.504;2023-05-19T11:32:30;101254.75;;;20.36;22.01
59487;BME280;45298;54.918;73.504;2023-05-19T11:35:00;101241.09;;;20.28;22.42
59487;BME280;45298;54.918;73.504;2023-05-19T11:37:31;101227.00;;;20.24;22.72
59487;BME280;45298;54.918;73.504;2023-05-19T11:40:04;101203.81;;;20.12;22.56
59487;BME280;45298;54.918;73.504;2023-05-19T11:42:35;101223.97;;;20.17;22.41
59487;BME280;45298;54.918;73.504;2023-05-19T11:45:05;101231.94;;;20.19;22.75
59487;BME280;45298;54.918;73.504;2023-05-19T11:47:34;101222.31;;;20.05;23.01
59487;BME280;45298;54.918;73.504;2023-05-19T11:50:24;101215.97;;;20.06;23.01
59487;BME280;45298;54.918;73.504;2023-05-19T11:52:55;101217.41;;;20.10;22.90
59487;BME280;45298;54.918;73.504;2023-05-19T11:55:25;101209.84;;;20.04;23.30
59487;BME280;45298;54.918;73.504;2023-05-19T12:00:36;101213.00;;;20.09;22.78
59487;BME280;45298;54.918;73.504;2023-05-19T12:03:07;101220.31;;;20.18;22.81
59487;BME280;45298;54.918;73.504;2023-05-19T12:05:39;101211.56;;;20.26;22.75
59487;BME280;45298;54.918;73.504;2023-05-19T12:08:11;101174.06;;;19.81;22.67
59487;BME280;45298;54.918;73.504;2023-05-19T12:10:40;101196.88;;;19.98;23.13
59487;BME280;45298;54.918;73.504;2023-05-19T12:13:09;101162.28;;;19.82;23.41
59487;BME280;45298;54.918;73.504;2023-05-19T12:15:38;101213.72;;;20.11;22.94
59487;BME280;45298;54.918;73.504;2023-05-19T12:18:07;101199.81;;;20.06;23.04
59487;BME280;45298;54.918;73.504;2023-05-19T12:20:37;101192.44;;;20.08;23.21
59487;BME280;45298;54.918;73.504;2023-05-19T12:23:07;101194.75;;;20.13;23.41
59487;BME280;45298;54.918;73.504;2023-05-19T12:25:37;101203.75;;;20.23;23.24
59487;BME280;45298;54.918;73.504;2023-05-19T12:28:06;101151.63;;;19.91;23.04
59487;BME280;45298;54.918;73.504;2023-05-19T12:30:38;101191.56;;;20.07;22.93
59487;BME280;45298;54.918;73.504;2023-05-19T12:33:07;101191.50;;;19.98;23.40
59487;BME280;45298;54.918;73.504;2023-05-19T12:35:37;101190.91;;;19.94;23.59
59487;BME280;45298;54.918;73.504;2023-05-19T12:38:06;101176.88;;;19.90;23.93
59487;BME280;45298;54.918;73.504;2023-05-19T12:40:35;101198.13;;;19.93;23.50
59487;BME280;45298;54.918;73.504;2023-05-19T12:43:07;101201.28;;;19.99;23.48
59487;BME280;45298;54.918;73.504;2023-05-19T12:45:40;101180.03;;;19.84;23.58
59487;BME280;45298;54.918;73.504;2023-05-19T12:48:13;101189.09;;;19.83;23.02
59487;BME280;45298;54.918;73.504;2023-05-19T12:50:45;101204.50;;;19.81;22.73
59487;BME280;45298;54.918;73.504;2023-05-19T12:53:14;101198.63;;;19.76;23.04
59487;BME280;45298;54.918;73.504;2023-05-19T12:55:44;101180.31;;;19.70;23.51
59487;BME280;45298;54.918;73.504;2023-05-19T12:58:14;101182.66;;;19.63;23.23
59487;BME280;45298;54.918;73.504;2023-05-19T13:00:45;101210.63;;;19.72;23.26
59487;BME280;45298;54.918;73.504;2023-05-19T13:03:18;101202.84;;;19.69;23.58
59487;BME280;45298;54.918;73.504;2023-05-19T13:05:50;101199.06;;;19.60;23.36
59487;BME280;45298;54.918;73.504;2023-05-19T13:08:20;101205.53;;;19.57;23.79
59487;BME280;45298;54.918;73.504;2023-05-19T13:10:51;101192.84;;;19.48;23.97
59487;BME280;45298;54.918;73.504;2023-05-19T13:13:20;101197.72;;;19.54;23.76
59487;BME280;45298;54.918;73.504;2023-05-19T13:15:49;101202.50;;;19.51;23.97
59487;BME280;45298;54.918;73.504;2023-05-19T13:18:18;101181.38;;;19.35;23.94
59487;BME280;45298;54.918;73.504;2023-05-19T13:20:47;101202.88;;;19.46;23.32
59487;BME280;45298;54.918;73.504;2023-05-19T13:23:18;101183.22;;;19.34;23.65
59487;BME280;45298;54.918;73.504;2023-05-19T13:25:48;101144.63;;;19.01;23.47
59487;BME280;45298;54.918;73.504;2023-05-19T13:28:19;101200.47;;;19.31;23.69
59487;BME280;45298;54.918;73.504;2023-05-19T13:30:48;101182.13;;;19.25;23.79
59487;BME280;45298;54.918;73.504;2023-05-19T13:33:18;101204.13;;;19.30;24.05
59487;BME280;45298;54.918;73.504;2023-05-19T13:35:47;101193.25;;;19.21;23.84
59487;BME280;45298;54.918;73.504;2023-05-19T13:38:17;101150.34;;;18.85;24.27
59487;BME280;45298;54.918;73.504;2023-05-19T13:40:48;101200.72;;;19.06;24.26
59487;BME280;45298;54.918;73.504;2023-05-19T13:43:17;101211.22;;;19.09;24.45
59487;BME280;45298;54.918;73.504;2023-05-19T13:45:46;101218.06;;;19.01;24.06